createdAt,value
2018-12-16T00:02:02.295Z,8.70
2018-12-16T00:04:29.967Z,10.50
2018-12-16T00:06:57.331Z,8.37
2018-12-16T00:09:24.708Z,9.20
2018-12-16T00:11:52.491Z,9.80
2018-12-16T00:14:20.480Z,9.37
2018-12-16T00:16:48.371Z,9.63
2018-12-16T00:19:15.989Z,9.53
2018-12-16T00:21:43.617Z,9.30
2018-12-16T00:24:11.186Z,9.60
2018-12-16T00:26:50.182Z,9.33
2018-12-16T00:29:17.761Z,9.10
2018-12-16T00:31:45.387Z,9.30
2018-12-16T00:34:12.991Z,9.33
2018-12-16T00:36:40.557Z,8.60
2018-12-16T00:39:08.248Z,7.90
2018-12-16T00:41:36.106Z,10.20
2018-12-16T00:44:04.079Z,9.50
2018-12-16T00:46:31.689Z,8.97
2018-12-16T00:48:59.135Z,9.10
2018-12-16T00:51:26.751Z,9.50
2018-12-16T00:53:54.107Z,9.40
2018-12-16T00:56:21.692Z,9.70
2018-12-16T00:58:49.383Z,9.33
2018-12-16T01:01:16.821Z,9.43
2018-12-16T01:03:44.772Z,8.30
2018-12-16T01:06:12.421Z,9.90
2018-12-16T01:08:40.085Z,9.10
2018-12-16T01:11:07.790Z,10.00
2018-12-16T01:13:35.381Z,9.40
2018-12-16T01:16:03.153Z,9.27
2018-12-16T01:18:30.933Z,10.13
2018-12-16T01:20:58.288Z,9.30
2018-12-16T01:23:26.019Z,10.90
2018-12-16T01:25:53.714Z,8.17
2018-12-16T01:28:21.391Z,8.90
2018-12-16T01:30:48.772Z,9.83
2018-12-16T01:33:16.836Z,10.40
2018-12-16T01:35:44.324Z,9.70
2018-12-16T01:38:12.000Z,9.33
2018-12-16T01:40:39.576Z,9.03
2018-12-16T01:43:07.141Z,10.40
2018-12-16T01:45:34.467Z,11.33
2018-12-16T01:48:02.092Z,9.70
2018-12-16T01:50:29.496Z,10.40
2018-12-16T01:52:57.080Z,10.13
2018-12-16T01:55:24.664Z,12.20
2018-12-16T01:57:52.228Z,12.77
2018-12-16T02:00:20.076Z,10.37
2018-12-16T02:02:48.012Z,8.93
2018-12-16T02:05:15.624Z,10.83
2018-12-16T02:07:43.435Z,10.23
2018-12-16T02:10:11.270Z,10.57
2018-12-16T02:12:38.620Z,9.43
2018-12-16T02:15:06.504Z,10.63
2018-12-16T02:17:33.892Z,10.60
2018-12-16T02:20:01.457Z,10.40
2018-12-16T02:22:28.778Z,10.57
2018-12-16T02:24:56.576Z,9.10
2018-12-16T02:27:24.112Z,9.43
2018-12-16T02:29:51.792Z,10.30
2018-12-16T02:32:19.482Z,9.27
2018-12-16T02:34:47.268Z,12.00
2018-12-16T02:37:14.737Z,10.43
2018-12-16T02:39:42.459Z,11.23
2018-12-16T02:42:10.116Z,11.17
2018-12-16T02:44:37.700Z,10.07
2018-12-16T02:47:05.462Z,11.63
2018-12-16T02:49:33.088Z,10.40
2018-12-16T02:52:00.841Z,10.87
2018-12-16T02:54:28.449Z,11.00
2018-12-16T02:56:56.009Z,11.00
2018-12-16T02:59:24.880Z,8.93
2018-12-16T03:01:52.650Z,10.70
2018-12-16T03:04:19.947Z,9.60
2018-12-16T03:06:47.580Z,10.40
2018-12-16T03:09:15.444Z,11.30
2018-12-16T03:11:43.163Z,10.77
2018-12-16T03:14:10.773Z,11.47
2018-12-16T03:16:39.665Z,10.00
2018-12-16T03:19:07.233Z,10.10
2018-12-16T03:21:34.948Z,11.43
2018-12-16T03:24:02.751Z,10.73
2018-12-16T03:26:35.875Z,11.17
2018-12-16T03:29:00.413Z,11.47
2018-12-16T03:31:28.115Z,10.83
2018-12-16T03:33:55.713Z,11.90
2018-12-16T03:36:23.189Z,10.60
2018-12-16T03:38:50.925Z,10.47
2018-12-16T03:41:18.559Z,12.20
2018-12-16T03:43:46.091Z,10.97
2018-12-16T03:46:13.652Z,13.00
2018-12-16T03:48:41.313Z,11.93
2018-12-16T03:51:08.610Z,11.37
2018-12-16T03:53:36.087Z,10.33
2018-12-16T03:56:03.846Z,11.80
2018-12-16T03:58:31.302Z,11.53
2018-12-16T04:00:58.941Z,11.40
2018-12-16T04:03:26.613Z,10.67
2018-12-16T04:05:54.024Z,11.73
2018-12-16T04:08:21.666Z,10.47
2018-12-16T04:10:49.099Z,13.10
2018-12-16T04:13:16.647Z,9.97
2018-12-16T04:15:44.210Z,12.30
2018-12-16T04:18:11.783Z,11.60
2018-12-16T04:20:39.247Z,12.33
2018-12-16T04:23:06.858Z,9.87
2018-12-16T04:25:34.312Z,12.07
2018-12-16T04:28:01.753Z,10.90
2018-12-16T04:30:29.336Z,10.43
2018-12-16T04:32:56.831Z,13.00
2018-12-16T04:35:24.548Z,10.83
2018-12-16T04:37:51.994Z,12.07
2018-12-16T04:40:19.645Z,12.10
2018-12-16T04:42:47.377Z,12.00
2018-12-16T04:45:15.096Z,12.60
2018-12-16T04:50:09.218Z,12.10
2018-12-16T04:52:36.913Z,12.70
2018-12-16T04:55:05.021Z,10.00
2018-12-16T04:57:32.567Z,11.80
2018-12-16T05:00:00.271Z,12.30
2018-12-16T05:02:27.958Z,12.77
2018-12-16T05:04:55.596Z,13.00
2018-12-16T05:07:23.213Z,12.30
2018-12-16T05:09:50.515Z,14.43
2018-12-16T05:12:18.222Z,12.90
2018-12-16T05:14:46.003Z,15.30
2018-12-16T05:17:13.530Z,12.90
2018-12-16T05:19:41.219Z,15.80
2018-12-16T05:22:08.762Z,15.77
2018-12-16T05:24:36.504Z,16.00
2018-12-16T05:27:04.036Z,16.23
2018-12-16T05:29:31.635Z,16.60
2018-12-16T05:31:59.162Z,15.40
2018-12-16T05:34:26.766Z,14.77
2018-12-16T05:36:54.507Z,12.17
2018-12-16T05:39:22.180Z,15.03
2018-12-16T05:41:49.718Z,14.70
2018-12-16T05:44:17.539Z,17.70
2018-12-16T05:46:45.264Z,15.67
2018-12-16T05:49:13.024Z,17.93
2018-12-16T05:51:40.450Z,17.97
2018-12-16T05:54:08.041Z,16.90
2018-12-16T05:56:35.598Z,17.93
2018-12-16T05:59:03.288Z,18.77
2018-12-16T06:01:30.734Z,20.07
2018-12-16T06:03:58.172Z,17.07
2018-12-16T06:06:26.204Z,18.17
2018-12-16T06:08:53.876Z,17.87
2018-12-16T06:11:21.586Z,18.90
2018-12-16T06:13:49.276Z,18.80
2018-12-16T06:16:16.812Z,18.83
2018-12-16T06:18:44.266Z,19.80
2018-12-16T06:21:12.138Z,19.00
2018-12-16T06:23:39.798Z,18.70
2018-12-16T06:26:07.469Z,19.60
2018-12-16T06:28:35.464Z,18.40
2018-12-16T06:31:03.097Z,20.10
2018-12-16T06:33:30.678Z,19.43
2018-12-16T06:35:58.004Z,19.70
2018-12-16T06:38:25.480Z,19.30
2018-12-16T06:40:53.048Z,21.40
2018-12-16T06:43:20.410Z,20.90
2018-12-16T06:45:47.824Z,20.60
2018-12-16T06:48:15.187Z,19.63
2018-12-16T06:50:42.568Z,18.63
2018-12-16T06:53:10.244Z,19.17
2018-12-16T06:55:43.290Z,19.33
2018-12-16T06:58:07.481Z,19.97
2018-12-16T07:00:35.121Z,19.13
2018-12-16T07:03:02.608Z,17.83
2018-12-16T07:05:30.008Z,18.30
2018-12-16T07:07:57.472Z,18.60
2018-12-16T07:10:25.116Z,18.23
2018-12-16T07:12:52.756Z,19.00
2018-12-16T07:15:20.126Z,19.33
2018-12-16T07:17:47.788Z,21.50
2018-12-16T07:20:15.379Z,20.80
2018-12-16T07:22:42.761Z,19.33
2018-12-16T07:25:11.703Z,19.43
2018-12-16T07:27:39.772Z,18.77
2018-12-16T07:30:08.092Z,18.73
2018-12-16T07:32:35.740Z,17.70
2018-12-16T07:35:03.409Z,17.00
2018-12-16T07:37:30.991Z,18.37
2018-12-16T07:39:58.851Z,18.00
2018-12-16T07:42:26.435Z,17.43
2018-12-16T07:44:53.989Z,18.50
2018-12-16T07:47:21.604Z,17.20
2018-12-16T07:49:49.175Z,18.27
2018-12-16T07:52:16.850Z,19.17
2018-12-16T07:54:44.327Z,18.77
2018-12-16T07:57:11.957Z,17.27
2018-12-16T07:59:39.638Z,19.47
2018-12-16T08:02:07.300Z,20.07
2018-12-16T08:04:34.903Z,18.77
2018-12-16T08:07:02.406Z,19.10
2018-12-16T08:09:30.015Z,19.47
2018-12-16T08:11:57.467Z,17.10
2018-12-16T08:14:25.151Z,17.30
2018-12-16T08:16:52.838Z,18.10
2018-12-16T08:19:20.679Z,19.03
2018-12-16T08:21:48.404Z,17.07
2018-12-16T08:24:22.957Z,17.83
2018-12-16T08:26:45.692Z,17.80
2018-12-16T08:29:13.362Z,16.80
2018-12-16T08:31:41.084Z,24.57
2018-12-16T08:34:08.828Z,19.87
2018-12-16T08:36:36.404Z,18.03
2018-12-16T08:39:06.397Z,19.60
2018-12-16T08:41:34.015Z,19.20
2018-12-16T08:44:01.779Z,18.87
2018-12-16T08:46:29.421Z,19.97
2018-12-16T08:48:56.817Z,21.65
2018-12-16T08:51:24.509Z,20.90
2018-12-16T08:53:52.033Z,19.60
2018-12-16T08:56:19.803Z,24.20
2018-12-16T08:58:47.447Z,22.67
2018-12-16T09:01:14.977Z,19.40
2018-12-16T09:03:43.005Z,18.17
2018-12-16T09:06:10.651Z,18.30
2018-12-16T09:08:38.461Z,17.43
2018-12-16T09:11:06.039Z,18.57
2018-12-16T09:13:33.811Z,18.07
2018-12-16T09:16:01.352Z,21.07
2018-12-16T09:18:29.079Z,22.25
2018-12-16T09:20:56.469Z,18.40
2018-12-16T09:23:24.027Z,19.63
2018-12-16T09:25:51.696Z,18.77
2018-12-16T09:28:19.394Z,18.87
2018-12-16T09:30:46.745Z,19.17
2018-12-16T09:33:14.431Z,18.50
2018-12-16T09:35:41.829Z,17.17
2018-12-16T09:38:09.553Z,17.00
2018-12-16T09:40:37.138Z,16.90
2018-12-16T09:43:04.767Z,17.90
2018-12-16T09:45:32.485Z,17.07
2018-12-16T09:48:00.615Z,16.60
2018-12-16T09:50:28.344Z,17.77
2018-12-16T09:52:55.945Z,17.67
2018-12-16T09:55:23.591Z,16.23
2018-12-16T09:57:51.133Z,17.23
2018-12-16T10:00:18.836Z,17.57
2018-12-16T10:02:46.439Z,16.23
2018-12-16T10:05:14.187Z,17.50
2018-12-16T10:07:41.753Z,18.47
2018-12-16T10:10:10.840Z,17.80
2018-12-16T10:12:38.523Z,16.90
2018-12-16T10:15:06.938Z,18.00
2018-12-16T10:17:34.281Z,19.67
2018-12-16T10:20:02.098Z,19.23
2018-12-16T10:22:29.578Z,20.23
2018-12-16T10:24:57.248Z,18.97
2018-12-16T10:27:24.803Z,17.87
2018-12-16T10:29:52.399Z,19.40
2018-12-16T10:32:20.170Z,17.00
2018-12-16T10:34:47.755Z,17.23
2018-12-16T10:37:15.385Z,17.90
2018-12-16T10:39:43.563Z,19.33
2018-12-16T10:42:11.224Z,19.23
2018-12-16T10:44:38.895Z,20.00
2018-12-16T10:47:06.459Z,18.23
2018-12-16T10:49:34.114Z,20.10
2018-12-16T10:52:01.875Z,19.67
2018-12-16T10:54:29.744Z,19.90
2018-12-16T10:56:57.511Z,19.20
2018-12-16T10:59:24.868Z,17.57
2018-12-16T11:01:52.595Z,16.70
2018-12-16T11:04:20.083Z,18.20
2018-12-16T11:06:47.800Z,17.97
2018-12-16T11:09:15.797Z,18.60
2018-12-16T11:11:44.125Z,18.10
2018-12-16T11:14:11.782Z,19.77
2018-12-16T11:16:39.712Z,18.03
2018-12-16T11:19:07.360Z,17.03
2018-12-16T11:21:35.055Z,18.80
2018-12-16T11:24:02.880Z,18.67
2018-12-16T11:26:30.552Z,19.20
2018-12-16T11:28:58.304Z,17.87
2018-12-16T11:31:26.049Z,17.27
2018-12-16T11:33:53.758Z,17.23
2018-12-16T11:36:21.404Z,17.00
2018-12-16T11:38:49.298Z,16.77
2018-12-16T11:41:17.064Z,18.40
2018-12-16T11:43:45.547Z,16.70
2018-12-16T11:46:13.020Z,17.90
2018-12-16T11:48:40.686Z,18.43
2018-12-16T11:51:08.454Z,17.97
2018-12-16T11:53:36.087Z,20.27
2018-12-16T11:56:03.642Z,20.43
2018-12-16T11:58:31.319Z,21.50
2018-12-16T12:00:58.920Z,18.97
2018-12-16T12:03:26.589Z,19.93
2018-12-16T12:05:53.938Z,17.60
2018-12-16T12:08:21.573Z,18.97
2018-12-16T12:10:49.255Z,20.37
2018-12-16T12:13:16.848Z,21.87
2018-12-16T12:15:44.433Z,19.57
2018-12-16T12:18:12.156Z,19.97
2018-12-16T12:20:39.544Z,21.37
2018-12-16T12:23:07.354Z,18.50
2018-12-16T12:25:34.929Z,19.53
2018-12-16T12:28:02.376Z,19.47
2018-12-16T12:30:29.973Z,19.20
2018-12-16T12:32:57.353Z,19.07
2018-12-16T12:35:25.122Z,22.23
2018-12-16T12:37:52.795Z,18.83
2018-12-16T12:40:20.369Z,22.27
2018-12-16T12:42:48.057Z,19.20
2018-12-16T12:45:15.691Z,21.20
2018-12-16T12:47:43.305Z,18.87
2018-12-16T12:50:10.887Z,21.80
2018-12-16T12:52:38.537Z,19.50
2018-12-16T12:55:06.549Z,18.93
2018-12-16T12:57:34.144Z,20.90
2018-12-16T13:00:01.989Z,20.70
2018-12-16T13:02:29.697Z,21.23
2018-12-16T13:04:57.233Z,21.33
2018-12-16T13:07:25.151Z,22.40
2018-12-16T13:09:52.513Z,20.00
2018-12-16T13:12:20.148Z,21.57
2018-12-16T13:14:47.621Z,19.90
2018-12-16T13:17:15.215Z,19.20
2018-12-16T13:19:42.965Z,19.53
2018-12-16T13:22:10.693Z,21.80
2018-12-16T13:24:49.121Z,21.80
2018-12-16T13:27:16.964Z,20.87
2018-12-16T13:29:44.807Z,20.20
2018-12-16T13:32:12.439Z,20.40
2018-12-16T13:34:40.151Z,20.33
2018-12-16T13:37:07.937Z,21.00
2018-12-16T13:39:36.143Z,21.13
2018-12-16T13:42:03.970Z,20.73
2018-12-16T13:44:31.802Z,21.50
2018-12-16T13:46:59.847Z,20.30
2018-12-16T13:49:28.061Z,20.17
2018-12-16T13:51:55.665Z,21.70
2018-12-16T13:54:40.095Z,22.40
2018-12-16T13:57:07.794Z,21.37
2018-12-16T13:59:35.422Z,22.40
2018-12-16T14:02:02.825Z,22.80
2018-12-16T14:04:30.426Z,24.07
2018-12-16T14:06:57.922Z,20.73
2018-12-16T14:09:25.610Z,23.20
2018-12-16T14:11:53.191Z,22.23
2018-12-16T14:14:20.839Z,24.00
2018-12-16T14:16:48.446Z,23.60
2018-12-16T14:19:16.118Z,23.63
2018-12-16T14:21:43.884Z,23.47
2018-12-16T14:24:11.511Z,24.67
2018-12-16T14:26:39.558Z,23.90
2018-12-16T14:29:07.115Z,21.83
2018-12-16T14:31:34.721Z,22.80
2018-12-16T14:34:02.481Z,22.57
2018-12-16T14:36:30.156Z,23.73
2018-12-16T14:38:57.881Z,23.27
2018-12-16T14:41:25.485Z,22.93
2018-12-16T14:43:53.214Z,22.97
2018-12-16T14:46:20.741Z,24.63
2018-12-16T14:48:48.131Z,22.90
2018-12-16T14:51:15.843Z,24.40
2018-12-16T14:53:43.317Z,21.97
2018-12-16T14:56:10.998Z,22.37
2018-12-16T14:58:38.642Z,22.90
2018-12-16T15:01:06.377Z,24.67
2018-12-16T15:03:33.970Z,24.37
2018-12-16T15:06:01.283Z,22.60
2018-12-16T15:08:29.004Z,22.03
2018-12-16T15:10:56.787Z,22.70
2018-12-16T15:13:24.572Z,24.53
2018-12-16T15:15:52.345Z,22.20
2018-12-16T15:18:19.989Z,22.10
2018-12-16T15:20:47.426Z,22.80
2018-12-16T15:23:15.159Z,24.23
2018-12-16T15:25:42.721Z,24.30
2018-12-16T15:28:10.421Z,23.37
2018-12-16T15:30:37.847Z,23.90
2018-12-16T15:33:05.529Z,21.73
2018-12-16T15:35:32.889Z,22.07
2018-12-16T15:38:00.564Z,24.53
2018-12-16T15:40:28.505Z,24.40
2018-12-16T15:42:56.186Z,25.13
2018-12-16T15:45:23.989Z,21.70
2018-12-16T15:47:51.576Z,22.80
2018-12-16T15:50:19.382Z,24.47
2018-12-16T15:52:46.987Z,24.33
2018-12-16T15:55:14.562Z,24.80
2018-12-16T15:57:42.121Z,24.60
2018-12-16T16:00:10.279Z,24.10
2018-12-16T16:02:38.050Z,25.37
2018-12-16T16:05:06.061Z,25.40
2018-12-16T16:07:34.047Z,25.03
2018-12-16T16:10:01.833Z,25.30
2018-12-16T16:12:29.253Z,24.53
2018-12-16T16:14:56.946Z,26.03
2018-12-16T16:17:24.321Z,26.60
2018-12-16T16:19:51.991Z,23.80
2018-12-16T16:22:20.581Z,25.07
2018-12-16T16:24:48.402Z,23.63
2018-12-16T16:27:16.045Z,24.20
2018-12-16T16:29:43.810Z,26.37
2018-12-16T16:32:11.445Z,25.20
2018-12-16T16:34:39.229Z,25.63
2018-12-16T16:37:06.991Z,24.03
2018-12-16T16:39:34.723Z,24.07
2018-12-16T16:42:02.307Z,24.13
2018-12-16T16:44:29.964Z,24.10
2018-12-16T16:46:57.602Z,23.00
2018-12-16T16:49:25.261Z,24.57
2018-12-16T16:51:52.866Z,22.20
2018-12-16T16:54:20.707Z,23.73
2018-12-16T16:56:48.289Z,22.40
2018-12-16T16:59:16.051Z,22.97
2018-12-16T17:01:43.761Z,22.00
2018-12-16T17:04:11.180Z,22.53
2018-12-16T17:06:39.140Z,21.57
2018-12-16T17:09:07.708Z,21.37
2018-12-16T17:11:35.641Z,22.10
2018-12-16T17:14:03.454Z,21.67
2018-12-16T17:16:31.093Z,21.30
2018-12-16T17:18:59.721Z,20.70
2018-12-16T17:21:27.960Z,21.87
2018-12-16T17:23:55.574Z,22.33
2018-12-16T17:26:29.809Z,22.60
2018-12-16T17:28:53.092Z,23.40
2018-12-16T17:31:20.693Z,23.33
2018-12-16T17:33:48.386Z,21.63
2018-12-16T17:36:16.104Z,23.40
2018-12-16T17:38:43.729Z,24.30
2018-12-16T17:41:11.596Z,24.83
2018-12-16T17:43:39.390Z,25.63
2018-12-16T17:46:06.733Z,23.17
2018-12-16T17:48:34.364Z,25.77
2018-12-16T17:51:01.770Z,24.87
2018-12-16T17:53:29.502Z,24.40
2018-12-16T17:55:57.298Z,24.20
2018-12-16T17:58:25.392Z,25.67
2018-12-16T18:00:52.941Z,24.77
2018-12-16T18:03:20.560Z,25.17
2018-12-16T18:05:48.093Z,25.03
2018-12-16T18:08:15.813Z,25.27
2018-12-16T18:10:43.545Z,23.27
2018-12-16T18:13:11.173Z,23.77
2018-12-16T18:15:38.839Z,25.80
2018-12-16T18:18:06.428Z,24.10
2018-12-16T18:20:33.916Z,25.07
2018-12-16T18:23:01.612Z,23.23
2018-12-16T18:25:29.351Z,24.13
2018-12-16T18:27:56.736Z,25.37
2018-12-16T18:30:24.564Z,24.67
2018-12-16T18:32:52.168Z,24.27
2018-12-16T18:35:19.990Z,23.63
2018-12-16T18:37:48.037Z,22.53
2018-12-16T18:40:15.638Z,24.67
2018-12-16T18:42:43.398Z,25.37
2018-12-16T18:45:11.252Z,25.20
2018-12-16T18:47:38.896Z,24.77
2018-12-16T18:50:08.359Z,26.13
2018-12-16T18:52:35.992Z,25.03
2018-12-16T18:55:04.168Z,26.50
2018-12-16T18:57:32.355Z,25.40
2018-12-16T19:00:00.097Z,24.67
2018-12-16T19:02:27.771Z,26.10
2018-12-16T19:04:55.404Z,25.10
2018-12-16T19:07:23.222Z,26.50
2018-12-16T19:09:50.833Z,24.87
2018-12-16T19:12:18.520Z,25.37
2018-12-16T19:14:46.437Z,25.30
2018-12-16T19:17:14.101Z,27.20
2018-12-16T19:19:42.061Z,24.80
2018-12-16T19:22:09.837Z,24.50
2018-12-16T19:24:37.349Z,27.77
2018-12-16T19:27:05.069Z,24.87
2018-12-16T19:29:32.816Z,27.33
2018-12-16T19:32:00.443Z,25.13
2018-12-16T19:34:28.256Z,29.83
2018-12-16T19:36:55.977Z,27.30
2018-12-16T19:39:23.732Z,26.07
2018-12-16T19:41:51.335Z,26.13
2018-12-16T19:44:18.943Z,27.40
2018-12-16T19:46:46.564Z,26.13
2018-12-16T19:49:14.200Z,26.40
2018-12-16T19:51:41.885Z,27.93
2018-12-16T19:54:09.520Z,25.57
2018-12-16T19:56:36.975Z,28.40
2018-12-16T19:59:04.835Z,27.77
2018-12-16T20:01:32.409Z,26.13
2018-12-16T20:04:05.829Z,26.80
2018-12-16T20:06:43.450Z,27.37
2018-12-16T20:09:11.441Z,25.27
2018-12-16T20:11:39.551Z,25.17
2018-12-16T20:14:07.203Z,27.13
2018-12-16T20:16:34.953Z,26.20
2018-12-16T20:19:02.847Z,26.70
2018-12-16T20:21:30.427Z,26.27
2018-12-16T20:23:58.321Z,27.93
2018-12-16T20:26:25.987Z,27.47
2018-12-16T20:28:53.721Z,26.20
2018-12-16T20:31:21.695Z,25.90
2018-12-16T20:33:49.828Z,28.87
2018-12-16T20:36:17.756Z,28.53
2018-12-16T20:38:45.395Z,28.20
2018-12-16T20:41:13.037Z,31.30
2018-12-16T20:43:40.455Z,26.47
2018-12-16T20:46:08.207Z,28.73
2018-12-16T20:48:35.587Z,29.30
2018-12-16T20:51:03.325Z,28.37
2018-12-16T20:53:31.115Z,25.80
2018-12-16T20:55:58.839Z,28.63
2018-12-16T20:58:26.393Z,27.93
2018-12-16T21:00:54.105Z,29.00
2018-12-16T21:03:22.051Z,26.87
2018-12-16T21:05:49.644Z,28.37
2018-12-16T21:08:17.528Z,25.90
2018-12-16T21:10:45.101Z,29.33
2018-12-16T21:13:18.593Z,31.23
2018-12-16T21:15:51.918Z,31.10
2018-12-16T21:18:22.840Z,28.63
2018-12-16T21:20:50.926Z,31.80
2018-12-16T21:23:18.610Z,29.00
2018-12-16T21:25:46.348Z,29.60
2018-12-16T21:28:13.938Z,29.73
2018-12-16T21:30:41.317Z,28.90
2018-12-16T21:33:08.926Z,31.17
2018-12-16T21:35:36.345Z,33.07
2018-12-16T21:38:04.149Z,30.47
2018-12-16T21:40:31.829Z,29.30
2018-12-16T21:42:59.427Z,29.97
2018-12-16T21:50:25.649Z,27.83
2018-12-16T21:52:53.277Z,29.00
2018-12-16T21:55:20.898Z,29.70
2018-12-16T21:57:48.624Z,28.87
2018-12-16T22:00:16.299Z,29.50
2018-12-16T22:02:43.996Z,28.17
2018-12-16T22:05:13.131Z,28.77
2018-12-16T22:07:40.760Z,29.27
2018-12-16T22:10:08.376Z,30.33
2018-12-16T22:12:36.173Z,29.17
2018-12-16T22:15:04.514Z,30.20
2018-12-16T22:17:31.881Z,29.60
2018-12-16T22:19:59.614Z,29.47
2018-12-16T22:22:27.360Z,30.53
2018-12-16T22:24:55.024Z,27.57
2018-12-16T22:27:22.822Z,29.13
2018-12-16T22:29:50.524Z,27.30
2018-12-16T22:32:18.125Z,30.17
2018-12-16T22:34:45.788Z,29.20
2018-12-16T22:37:13.723Z,28.33
2018-12-16T22:39:41.483Z,28.13
2018-12-16T22:42:09.080Z,30.77
2018-12-16T22:44:36.854Z,30.17
2018-12-16T22:47:04.582Z,28.20
2018-12-16T22:49:32.558Z,30.13
2018-12-16T22:52:00.245Z,28.67
2018-12-16T22:54:28.090Z,29.57
2018-12-16T22:56:55.621Z,29.57
2018-12-16T22:59:23.047Z,27.20
2018-12-16T23:01:50.926Z,28.47
2018-12-16T23:04:18.424Z,30.17
2018-12-16T23:06:46.010Z,28.90
2018-12-16T23:09:13.628Z,29.17
2018-12-16T23:11:41.246Z,29.63
2018-12-16T23:14:08.876Z,29.50
2018-12-16T23:16:36.543Z,29.47
2018-12-16T23:19:04.278Z,29.97
2018-12-16T23:21:31.894Z,29.43
2018-12-16T23:23:59.724Z,32.40
2018-12-16T23:26:27.232Z,31.03
2018-12-16T23:28:54.910Z,31.13
2018-12-16T23:31:22.463Z,31.37
2018-12-16T23:33:50.120Z,32.93
2018-12-16T23:36:17.989Z,30.87
2018-12-16T23:38:45.621Z,30.53
2018-12-16T23:41:13.378Z,31.40
2018-12-16T23:43:41.039Z,29.47
2018-12-16T23:46:08.756Z,31.30
2018-12-16T23:48:36.470Z,30.40
2018-12-16T23:51:04.166Z,32.57
2018-12-16T23:53:31.841Z,32.60
2018-12-16T23:55:59.441Z,30.83
2018-12-16T23:58:27.043Z,30.80
